This is the latest recevied weather packets stored in our database for station/object CE4TQY-10. If no packets are shown the sender has not sent any weather packets the latest 10 day(s).
| Time | Temp. | Humidity | Pressure | Rain* | Wind** | Luminosity | Snow |
|---|---|---|---|---|---|---|---|
| 1777563833 | 25.56° C | 45% | 1016.4 hPa | - | - | - | - |
| 1777562965 | 24.44° C | 49% | 1016.4 hPa | - | - | - | - |
| 1777562932 | 24.44° C | 49% | 1016.4 hPa | - | - | - | - |
| 1777562031 | 22.78° C | 53% | 1016.4 hPa | - | - | - | - |
| 1777561130 | 23.89° C | 48% | 1016 hPa | - | - | - | - |
| 1777560229 | 22.78° C | 52% | 1015.8 hPa | - | - | - | - |
| 1777559329 | 21.11° C | 55% | 1015.7 hPa | - | - | - | - |
| 1777558428 | 21.11° C | 54% | 1015.5 hPa | - | - | - | - |
| 1777557527 | 21.67° C | 53% | 1015.5 hPa | - | - | - | - |
| 1777556626 | 20° C | 55% | 1015.4 hPa | - | - | - | - |
| 1777555725 | 20.56° C | 57% | 1015.4 hPa | - | - | - | - |
| 1777554824 | 17.78° C | 57% | 1015.3 hPa | - | - | - | - |
| 1777553923 | 19.44° C | 55% | 1015.3 hPa | - | - | - | - |
| 1777553022 | 19.44° C | 55% | 1015.3 hPa | - | - | - | - |
| 1777552121 | 17.22° C | 57% | 1015 hPa | - | - | - | - |
| 1777551219 | 14.44° C | 65% | 1014.8 hPa | - | - | - | - |
| 1777550318 | 15° C | 71% | 1014.7 hPa | - | - | - | - |
| 1777549416 | 11.11° C | 83% | 1011.1 hPa | - | - | - | - |
| 1777548515 | 10° C | 76% | 1014.4 hPa | - | - | - | - |
| 1777547614 | 11.11° C | 74% | 1014.4 hPa | - | - | - | - |
| 1777546713 | 12.22° C | 66% | 1014.4 hPa | - | - | - | - |
| 1777545812 | 12.78° C | 65% | 1014.5 hPa | - | - | - | - |
| 1777544911 | 12.22° C | 75% | 1014.6 hPa | - | - | - | - |
| 1777544010 | 11.11° C | 75% | 1014.6 hPa | - | - | - | - |
| 1777543110 | 11.11° C | 73% | 1014.7 hPa | - | - | - | - |
* Rain since midnight (hover to see other rain measurements)
** Current wind speed in m/s (hover to see current wind gust speed)